This is the latest recevied weather packets stored in our database for station/object W4ZHA. If no packets are shown the sender has not sent any weather packets the latest 10 day(s).
| Time | Temp. | Humidity | Pressure | Rain* | Wind** | Luminosity | Snow |
|---|---|---|---|---|---|---|---|
| 1778091303 | 21.67° C | 75% | 1014.1 hPa | 3.56 mm | - | 13 W/m² | - |
| 1778091000 | 21.67° C | 74% | 1014.1 hPa | 3.56 mm | - | 18 W/m² | - |
| 1778090697 | 21.67° C | 73% | 1013.8 hPa | 3.56 mm | - | 31 W/m² | - |
| 1778090393 | 21.67° C | 72% | 1013.8 hPa | 1.78 mm | - | 19 W/m² | - |
| 1778090090 | 21.67° C | 71% | 1013.8 hPa | 0 mm | - | 45 W/m² | - |
| 1778089786 | 21.67° C | 71% | 1013.8 hPa | 0 mm | - | 63 W/m² | - |
| 1778089485 | 22.22° C | 70% | 1013.4 hPa | 0 mm | - | 70 W/m² | - |
| 1778089181 | 22.22° C | 70% | 1013.4 hPa | 0 mm | - | 98 W/m² | - |
| 1778088879 | 22.22° C | 70% | 1013.4 hPa | 0 mm | - | 90 W/m² | - |
| 1778088575 | 21.67° C | 70% | 1013.4 hPa | 0 mm | - | 118 W/m² | - |
| 1778088272 | 21.67° C | 70% | 1013 hPa | 0 mm | - | 167 W/m² | - |
| 1778087969 | 21.67° C | 70% | 1013.4 hPa | 0 mm | - | 110 W/m² | - |
| 1778087666 | 21.67° C | 70% | 1013 hPa | 0 mm | - | 59 W/m² | - |
| 1778087365 | 21.67° C | 70% | 1013.8 hPa | 0 mm | - | 124 W/m² | - |
| 1778087060 | 21.67° C | 71% | 1013 hPa | 0 mm | - | 67 W/m² | - |
| 1778086759 | 21.11° C | 70% | 1013 hPa | 0 mm | - | 94 W/m² | - |
| 1778086457 | 21.11° C | 72% | 1012.7 hPa | 0 mm | - | 169 W/m² | - |
| 1778086153 | 21.11° C | 72% | 1013.4 hPa | 0 mm | - | 126 W/m² | - |
| 1778085850 | 20.56° C | 73% | 1013 hPa | 0 mm | - | 289 W/m² | - |
| 1778085548 | 20.56° C | 75% | 1013 hPa | 0 mm | - | 172 W/m² | - |
| 1778085242 | 20.56° C | 76% | 1013 hPa | 0 mm | - | 194 W/m² | - |
| 1778084937 | 20.56° C | 77% | 1012.7 hPa | 0 mm | - | 168 W/m² | - |
| 1778084635 | 20.56° C | 85% | 1013 hPa | 0 mm | - | 273 W/m² | - |
| 1778084333 | 20° C | 87% | 1012.7 hPa | 0 mm | - | 492 W/m² | - |
| 1778084030 | 20.56° C | 94% | 1013 hPa | 0 mm | - | 356 W/m² | - |
* Rain latest hour (hover to see other rain measurements)
** Current wind speed in m/s (hover to see current wind gust speed)